createdAt,value
2022-10-09T00:00:05.929Z,73.10
2022-10-09T00:05:13.544Z,72.77
2022-10-09T00:10:15.138Z,73.25
2022-10-09T00:15:16.758Z,73.17
2022-10-09T00:20:18.218Z,73.32
2022-10-09T00:25:19.611Z,73.49
2022-10-09T00:30:21.024Z,73.18
2022-10-09T00:35:22.862Z,73.16
2022-10-09T00:40:24.889Z,74.10
2022-10-09T00:45:27.011Z,73.69
2022-10-09T00:50:39.493Z,73.65
2022-10-09T00:55:41.719Z,73.37
2022-10-09T01:00:43.153Z,73.30
2022-10-09T01:06:07.790Z,73.29
2022-10-09T01:11:48.833Z,73.19
2022-10-09T01:16:57.527Z,74.16
2022-10-09T01:22:18.896Z,74.08
2022-10-09T01:27:28.518Z,74.74
2022-10-09T01:32:34.447Z,74.48
2022-10-09T01:37:39.081Z,75.07
2022-10-09T01:42:40.837Z,75.06
2022-10-09T01:47:42.857Z,75.04
2022-10-09T01:52:53.353Z,74.81
2022-10-09T01:58:07.003Z,75.35
2022-10-09T02:03:12.149Z,75.57
2022-10-09T02:08:19.047Z,75.80
2022-10-09T02:13:20.845Z,75.15
2022-10-09T02:18:40.725Z,76.28
2022-10-09T02:23:45.075Z,75.87
2022-10-09T02:28:46.721Z,76.14
2022-10-09T02:34:02.010Z,75.67
2022-10-09T02:39:04.771Z,75.91
2022-10-09T02:44:06.967Z,75.99
2022-10-09T02:49:08.410Z,76.77
2022-10-09T02:54:10.268Z,76.60
2022-10-09T02:59:11.700Z,76.69
2022-10-09T03:04:13.272Z,76.35
2022-10-09T03:09:14.743Z,76.11
2022-10-09T03:14:16.636Z,76.57
2022-10-09T03:19:18.117Z,77.15
2022-10-09T03:24:19.521Z,77.38
2022-10-09T03:29:21.110Z,77.77
2022-10-09T03:34:22.553Z,77.64
2022-10-09T03:39:24.040Z,77.89
2022-10-09T03:44:25.454Z,77.39
2022-10-09T03:49:26.860Z,77.54
2022-10-09T03:54:28.282Z,77.08
2022-10-09T03:59:29.691Z,77.60
2022-10-09T04:04:31.124Z,78.31
2022-10-09T04:09:32.517Z,77.73
2022-10-09T04:14:34.018Z,78.31
2022-10-09T04:19:35.403Z,78.59
2022-10-09T04:24:36.799Z,78.73
2022-10-09T04:29:38.229Z,78.43
2022-10-09T04:34:39.672Z,78.36
2022-10-09T04:39:41.115Z,78.90
2022-10-09T04:44:42.535Z,78.86
2022-10-09T04:49:43.936Z,78.66
2022-10-09T04:54:45.347Z,79.15
2022-10-09T04:59:46.772Z,79.64
2022-10-09T05:04:48.222Z,79.87
2022-10-09T05:09:49.668Z,79.69
2022-10-09T05:14:51.079Z,80.12
2022-10-09T05:19:52.494Z,78.69
2022-10-09T05:24:53.932Z,78.93
2022-10-09T05:29:55.717Z,79.02
2022-10-09T05:34:57.103Z,79.63
2022-10-09T05:39:58.485Z,79.17
2022-10-09T05:44:59.867Z,77.93
2022-10-09T05:50:01.292Z,77.86
2022-10-09T05:55:02.903Z,77.03
2022-10-09T06:00:04.931Z,77.65
2022-10-09T06:05:14.071Z,76.55
2022-10-09T06:10:16.705Z,76.74
2022-10-09T06:15:18.128Z,77.22
2022-10-09T06:20:19.610Z,76.37
2022-10-09T06:25:21.007Z,76.68
2022-10-09T06:30:22.437Z,76.31
2022-10-09T06:35:23.832Z,76.15
2022-10-09T06:40:25.270Z,76.25
2022-10-09T06:45:26.682Z,75.36
2022-10-09T06:50:28.078Z,75.93
2022-10-09T06:55:29.538Z,74.89
2022-10-09T07:00:30.943Z,75.60
2022-10-09T07:05:32.332Z,74.80
2022-10-09T07:10:33.753Z,74.92
2022-10-09T07:15:35.216Z,75.15
2022-10-09T07:20:36.669Z,74.53
2022-10-09T07:25:39.691Z,73.99
2022-10-09T07:30:41.147Z,73.88
2022-10-09T07:35:42.565Z,73.77
2022-10-09T07:40:43.981Z,73.73
2022-10-09T07:45:46.115Z,73.48
2022-10-09T07:50:47.583Z,74.39
2022-10-09T07:55:49.709Z,73.75
2022-10-09T08:00:51.119Z,73.75
2022-10-09T08:05:56.134Z,74.00
2022-10-09T08:10:57.540Z,74.30
2022-10-09T08:15:59.013Z,73.82
2022-10-09T08:21:03.718Z,73.59
2022-10-09T08:26:12.557Z,72.87
2022-10-09T08:31:15.892Z,73.92
2022-10-09T08:36:17.505Z,73.80
2022-10-09T08:41:24.808Z,74.30
2022-10-09T08:46:31.717Z,73.53
2022-10-09T08:51:37.357Z,74.11
2022-10-09T08:56:38.836Z,73.36
2022-10-09T09:01:48.388Z,72.83
2022-10-09T09:07:00.982Z,73.04
2022-10-09T09:12:25.160Z,72.88
2022-10-09T09:17:41.196Z,72.49
2022-10-09T09:22:48.088Z,72.59
2022-10-09T09:27:52.166Z,72.42
2022-10-09T09:33:01.342Z,72.93
2022-10-09T09:38:02.901Z,72.55
2022-10-09T09:43:14.678Z,73.29
2022-10-09T09:48:22.968Z,72.91
2022-10-09T09:53:35.770Z,74.30
2022-10-09T09:58:45.855Z,73.39
2022-10-09T10:03:49.486Z,73.08
2022-10-09T10:09:03.345Z,72.57
2022-10-09T10:14:07.130Z,72.88
2022-10-09T10:19:21.779Z,73.27
2022-10-09T10:24:30.592Z,72.26
2022-10-09T10:29:37.510Z,73.33
2022-10-09T10:34:51.602Z,72.64
2022-10-09T10:39:59.240Z,73.01
2022-10-09T10:45:09.448Z,72.58
2022-10-09T10:50:15.926Z,72.49
2022-10-09T10:55:29.231Z,73.22
2022-10-09T11:00:35.880Z,73.61
2022-10-09T11:05:48.988Z,72.47
2022-10-09T11:11:02.466Z,73.12
2022-10-09T11:16:22.719Z,73.41
2022-10-09T11:22:05.624Z,72.96
2022-10-09T11:27:26.237Z,72.51
2022-10-09T11:32:34.595Z,73.08
2022-10-09T11:37:38.617Z,71.87
2022-10-09T11:42:40.863Z,72.45
2022-10-09T11:48:08.343Z,73.13
2022-10-09T11:53:16.307Z,72.13
2022-10-09T11:58:22.765Z,72.72
2022-10-09T12:03:36.059Z,72.17
2022-10-09T12:08:42.426Z,71.87
2022-10-09T12:13:56.121Z,71.96
2022-10-09T12:19:00.151Z,72.15
2022-10-09T12:24:03.582Z,71.77
2022-10-09T12:29:05.954Z,71.67
2022-10-09T12:34:18.992Z,72.12
2022-10-09T12:39:23.520Z,72.35
2022-10-09T12:44:34.466Z,71.64
2022-10-09T12:49:36.096Z,71.15
2022-10-09T12:54:44.676Z,71.61
2022-10-09T12:59:47.309Z,72.08
2022-10-09T13:05:00.536Z,72.40
2022-10-09T13:10:16.441Z,71.31
2022-10-09T13:15:44.189Z,72.76
2022-10-09T13:20:45.620Z,71.95
2022-10-09T13:25:47.177Z,71.35
2022-10-09T13:30:48.616Z,72.07
2022-10-09T13:35:50.104Z,72.36
2022-10-09T13:40:51.570Z,72.07
2022-10-09T13:45:53.755Z,71.97
2022-10-09T13:50:55.160Z,70.97
2022-10-09T13:56:00.732Z,70.81
2022-10-09T14:01:03.526Z,69.60
2022-10-09T14:06:05.171Z,69.74
2022-10-09T14:11:07.350Z,69.72
2022-10-09T14:16:08.879Z,69.36
2022-10-09T14:21:15.048Z,69.10
2022-10-09T14:26:16.897Z,68.39
2022-10-09T14:31:18.454Z,68.72
2022-10-09T14:36:19.956Z,68.49
2022-10-09T14:41:22.469Z,67.88
2022-10-09T14:46:24.092Z,67.65
2022-10-09T14:51:26.987Z,68.05
2022-10-09T14:56:28.968Z,69.02
2022-10-09T15:01:30.428Z,69.43
2022-10-09T15:06:33.817Z,69.51
2022-10-09T15:11:35.804Z,69.81
2022-10-09T15:16:37.291Z,69.50
2022-10-09T15:21:38.680Z,69.70
2022-10-09T15:26:40.090Z,69.05
2022-10-09T15:31:41.712Z,69.89
2022-10-09T15:36:44.096Z,70.38
2022-10-09T15:41:46.462Z,69.76
2022-10-09T15:46:48.834Z,71.26
2022-10-09T15:51:50.267Z,70.58
2022-10-09T15:56:51.757Z,69.94
2022-10-09T16:01:53.467Z,70.54
2022-10-09T16:06:54.901Z,70.73
2022-10-09T16:11:56.283Z,71.47
2022-10-09T16:16:58.746Z,71.41
2022-10-09T16:22:00.173Z,71.80
2022-10-09T16:27:01.600Z,71.58
2022-10-09T16:32:03.019Z,72.16
2022-10-09T16:37:04.594Z,73.73
2022-10-09T16:42:05.993Z,72.48
2022-10-09T16:47:07.598Z,72.46
2022-10-09T16:52:09.014Z,73.24
2022-10-09T16:57:10.437Z,73.91
2022-10-09T17:02:12.347Z,75.12
2022-10-09T17:07:13.863Z,75.16
2022-10-09T17:12:15.392Z,75.59
2022-10-09T17:17:16.882Z,74.91
2022-10-09T17:22:18.262Z,75.10
2022-10-09T17:27:19.726Z,76.48
2022-10-09T17:32:21.227Z,75.87
2022-10-09T17:37:22.682Z,76.04
2022-10-09T17:42:24.083Z,76.19
2022-10-09T17:47:25.478Z,75.93
2022-10-09T17:52:26.891Z,77.83
2022-10-09T17:57:28.295Z,77.69
2022-10-09T18:02:29.862Z,77.33
2022-10-09T18:07:31.295Z,76.90
2022-10-09T18:12:32.763Z,78.03
2022-10-09T18:17:34.287Z,78.15
2022-10-09T18:22:36.839Z,79.77
2022-10-09T18:27:38.317Z,79.18
2022-10-09T18:32:39.721Z,80.08
2022-10-09T18:37:41.402Z,79.26
2022-10-09T18:42:42.812Z,79.67
2022-10-09T18:47:44.600Z,79.84
2022-10-09T18:52:46.082Z,79.46
2022-10-09T18:57:47.831Z,79.47
2022-10-09T19:02:49.264Z,79.69
2022-10-09T19:07:50.832Z,79.25
2022-10-09T19:12:52.466Z,79.05
2022-10-09T19:17:53.886Z,79.37
2022-10-09T19:22:55.298Z,78.93
2022-10-09T19:27:56.753Z,78.57
2022-10-09T19:32:58.163Z,78.31
2022-10-09T19:38:00.438Z,79.11
2022-10-09T19:43:01.833Z,78.54
2022-10-09T19:48:03.407Z,78.87
2022-10-09T19:53:04.798Z,78.55
2022-10-09T19:58:06.235Z,78.77
2022-10-09T20:03:07.614Z,78.21
2022-10-09T20:08:09.091Z,78.35
2022-10-09T20:13:10.486Z,78.09
2022-10-09T20:18:12.466Z,77.97
2022-10-09T20:23:14.021Z,77.58
2022-10-09T20:28:15.710Z,77.52
2022-10-09T20:33:17.150Z,78.10
2022-10-09T20:38:21.960Z,78.42
2022-10-09T20:43:26.922Z,77.90
2022-10-09T20:48:28.330Z,78.71
2022-10-09T20:53:29.845Z,79.18
2022-10-09T20:58:31.336Z,78.81
2022-10-09T21:03:34.079Z,78.53
2022-10-09T21:08:35.989Z,77.35
2022-10-09T21:13:38.666Z,77.66
2022-10-09T21:18:40.494Z,78.52
2022-10-09T21:23:43.632Z,78.58
2022-10-09T21:28:45.474Z,77.78
2022-10-09T21:33:47.317Z,78.25
2022-10-09T21:38:48.735Z,78.25
2022-10-09T21:43:50.118Z,78.13
2022-10-09T21:48:51.629Z,78.41
2022-10-09T21:53:53.935Z,78.50
2022-10-09T21:58:55.346Z,78.89
2022-10-09T22:03:56.747Z,79.18
2022-10-09T22:08:59.575Z,78.68
2022-10-09T22:14:01.000Z,79.10
2022-10-09T22:19:02.424Z,78.73
2022-10-09T22:24:03.954Z,78.54
2022-10-09T22:29:05.361Z,78.19
2022-10-09T22:34:06.772Z,78.19
2022-10-09T22:39:08.428Z,77.99
2022-10-09T22:44:11.980Z,78.87
2022-10-09T22:49:15.002Z,77.63
2022-10-09T22:54:16.450Z,78.70
2022-10-09T22:59:18.165Z,78.42
2022-10-09T23:04:20.669Z,79.45
2022-10-09T23:09:24.025Z,80.45
2022-10-09T23:14:26.189Z,80.47
2022-10-09T23:19:27.667Z,79.84
2022-10-09T23:24:29.097Z,79.84
2022-10-09T23:29:30.515Z,80.17
2022-10-09T23:34:31.919Z,79.42
2022-10-09T23:39:33.307Z,78.76
2022-10-09T23:44:34.772Z,79.42
2022-10-09T23:49:36.742Z,79.76
2022-10-09T23:54:38.161Z,80.02
2022-10-09T23:59:39.562Z,79.75
